createdAt,value
2019-02-17T00:01:26.389Z,202.0
2019-02-17T00:11:27.237Z,203.6
2019-02-17T00:21:27.204Z,192.4
2019-02-17T00:31:27.024Z,200.2
2019-02-17T00:41:28.591Z,212.8
2019-02-17T00:51:28.004Z,221.5
2019-02-17T01:01:27.718Z,236.3
2019-02-17T01:11:28.278Z,243.7
2019-02-17T01:21:27.861Z,240.1
2019-02-17T01:31:26.503Z,203.7
2019-02-17T01:41:28.340Z,208.8
2019-02-17T01:51:27.212Z,227.4
2019-02-17T02:01:27.010Z,221.5
2019-02-17T02:11:26.702Z,225.0
2019-02-17T02:21:26.811Z,225.0
2019-02-17T02:31:27.517Z,225.1
2019-02-17T02:41:35.594Z,207.7
2019-02-17T02:51:27.389Z,218.2
2019-02-17T03:01:26.968Z,197.0
2019-02-17T03:11:28.037Z,196.8
2019-02-17T03:21:27.063Z,170.4
2019-02-17T03:31:26.972Z,163.7
2019-02-17T03:41:26.681Z,158.2
2019-02-17T03:51:27.701Z,151.7
2019-02-17T04:01:31.729Z,158.9
2019-02-17T04:11:26.834Z,146.3
2019-02-17T04:21:26.861Z,146.4
2019-02-17T04:31:28.685Z,144.8
2019-02-17T04:41:26.311Z,144.4
2019-02-17T04:51:27.263Z,144.1
2019-02-17T05:01:26.902Z,139.8
2019-02-17T05:11:26.483Z,133.2
2019-02-17T05:21:27.549Z,131.7
2019-02-17T05:31:26.987Z,142.1
2019-02-17T05:41:27.449Z,134.7
2019-02-17T05:51:27.466Z,148.1
2019-02-17T06:01:27.368Z,138.0
2019-02-17T06:11:27.610Z,133.2
2019-02-17T06:21:27.058Z,138.6
2019-02-17T06:31:28.612Z,142.4
2019-02-17T06:41:27.251Z,137.0
2019-02-17T06:51:27.133Z,141.1
2019-02-17T07:01:26.962Z,158.1
2019-02-17T07:11:26.671Z,129.6
2019-02-17T07:21:27.095Z,129.8
2019-02-17T07:31:35.633Z,131.4
2019-02-17T07:41:27.301Z,140.0
2019-02-17T07:51:27.271Z,142.0
2019-02-17T08:01:27.030Z,126.2
2019-02-17T08:11:26.985Z,120.5
2019-02-17T08:21:27.592Z,109.3
2019-02-17T08:31:27.764Z,96.5
2019-02-17T08:41:26.251Z,99.3
2019-02-17T08:51:26.981Z,81.7
2019-02-17T09:01:26.626Z,76.6
2019-02-17T09:11:27.518Z,74.8
2019-02-17T09:21:26.417Z,77.0
2019-02-17T09:31:28.283Z,51.7
2019-02-17T09:41:27.779Z,56.4
2019-02-17T09:51:26.369Z,50.0
2019-02-17T10:01:27.711Z,39.3
2019-02-17T10:11:27.099Z,39.3
2019-02-17T10:21:27.307Z,50.1
2019-02-17T10:31:28.257Z,42.2
2019-02-17T10:41:28.609Z,40.0
2019-02-17T10:51:28.378Z,49.1
2019-02-17T11:01:28.196Z,40.5
2019-02-17T11:11:26.970Z,40.4
2019-02-17T11:21:27.382Z,41.4
2019-02-17T11:31:27.410Z,31.7
2019-02-17T11:41:27.704Z,26.6
2019-02-17T11:51:28.610Z,24.1
2019-02-17T12:01:27.325Z,25.6
2019-02-17T12:11:27.973Z,24.2
2019-02-17T12:21:27.971Z,25.4
2019-02-17T12:31:26.712Z,28.7
2019-02-17T12:41:27.384Z,27.9
2019-02-17T12:51:27.426Z,26.4
2019-02-17T13:01:29.218Z,13.4
2019-02-17T13:11:28.053Z,14.4
2019-02-17T13:21:27.630Z,15.0
2019-02-17T13:31:27.737Z,15.0
2019-02-17T13:41:26.736Z,17.7
2019-02-17T13:51:27.296Z,13.5
2019-02-17T14:01:27.972Z,16.9
2019-02-17T14:11:26.653Z,14.0
2019-02-17T14:21:28.199Z,17.7
2019-02-17T14:31:29.188Z,15.7
2019-02-17T14:41:27.343Z,13.9
2019-02-17T14:51:26.190Z,16.7
2019-02-17T15:01:26.953Z,14.5
2019-02-17T15:11:27.348Z,18.3
2019-02-17T15:21:32.146Z,19.6
2019-02-17T15:31:32.347Z,23.5
2019-02-17T15:41:32.643Z,23.5
2019-02-17T15:51:26.737Z,30.9
2019-02-17T16:01:27.450Z,25.4
2019-02-17T16:11:27.271Z,32.8
2019-02-17T16:21:26.360Z,35.1
2019-02-17T16:31:27.998Z,26.9
2019-02-17T16:41:27.663Z,28.0
2019-02-17T16:51:27.808Z,38.1
2019-02-17T17:01:27.334Z,31.2
2019-02-17T17:11:27.803Z,27.3
2019-02-17T17:21:27.176Z,27.5
2019-02-17T17:31:27.132Z,36.6
2019-02-17T17:41:27.772Z,38.3
2019-02-17T17:51:26.745Z,29.5
2019-02-17T18:01:26.618Z,33.6
2019-02-17T18:11:28.543Z,42.6
2019-02-17T18:21:27.359Z,43.6
2019-02-17T18:31:29.364Z,46.2
2019-02-17T18:41:28.303Z,57.0
2019-02-17T18:51:28.450Z,73.6
2019-02-17T19:01:28.282Z,58.7
2019-02-17T19:11:27.803Z,74.1
2019-02-17T19:21:28.082Z,62.2
2019-02-17T19:31:27.052Z,68.4
2019-02-17T19:41:27.295Z,71.5
2019-02-17T19:51:27.583Z,95.3
2019-02-17T20:01:27.615Z,80.6
2019-02-17T20:11:28.837Z,101.7
2019-02-17T20:21:27.435Z,94.5
2019-02-17T20:31:27.659Z,98.7
2019-02-17T20:41:26.671Z,123.8
2019-02-17T20:51:27.344Z,126.8
2019-02-17T21:01:27.075Z,119.0
2019-02-17T21:11:27.002Z,116.4
2019-02-17T21:21:27.877Z,147.1
2019-02-17T21:31:27.390Z,146.2
2019-02-17T21:41:27.308Z,145.0
2019-02-17T21:51:28.674Z,135.0
2019-02-17T22:01:27.736Z,155.9
2019-02-17T22:11:26.596Z,144.1
2019-02-17T22:21:27.006Z,149.5
2019-02-17T22:31:28.921Z,150.6
2019-02-17T22:41:27.456Z,148.4
2019-02-17T22:51:27.650Z,143.9
2019-02-17T23:01:29.306Z,149.1
2019-02-17T23:11:30.319Z,164.7
2019-02-17T23:21:27.223Z,181.4
2019-02-17T23:31:26.874Z,336.2
2019-02-17T23:41:28.202Z,205.5
2019-02-17T23:51:28.748Z,209.5
